New Providence, Iowa
Current Conditions -  °F | °C
As of 10:15 PM on Wednesday 28 Jan 2015 (Local Time) from KIFA Reporting Station
Haze Haze  
Wind Chill: 26°   Ceiling: 3100
Heat Index: 32°   Visibility: 4mi
Dew Point: 31°   Wind: 6mph
Humidity: 96%   Direction: 320°NW
Pressure: 29.73"   Gusts: NA
Location:  42.28°N, 93.17°W
Report Text: KIFA 290415Z AUTO 32005KT 4SM BR BKN031 00/M01 A2973 RMK AO2 T00001006
Loading
Personal Weather Stations






























Interactive Weather Map New forecast layout! Learn more

10-Day Weather Forecast

Advertisements
Track Severe Weather on mobile